sensor_id;sensor_type;location;lat;lon;timestamp;temperature;humidity
39777;DHT22;25453;48.162;14.510;2023-08-20T00:01:28;24.40;68.50
39777;DHT22;25453;48.162;14.510;2023-08-20T00:03:56;24.40;68.50
39777;DHT22;25453;48.162;14.510;2023-08-20T00:06:24;24.40;68.60
39777;DHT22;25453;48.162;14.510;2023-08-20T00:08:51;24.40;68.60
39777;DHT22;25453;48.162;14.510;2023-08-20T00:11:19;24.40;68.50
39777;DHT22;25453;48.162;14.510;2023-08-20T00:13:46;24.30;68.50
39777;DHT22;25453;48.162;14.510;2023-08-20T00:16:13;24.30;68.60
39777;DHT22;25453;48.162;14.510;2023-08-20T00:18:41;24.20;68.70
39777;DHT22;25453;48.162;14.510;2023-08-20T00:21:08;24.20;68.70
39777;DHT22;25453;48.162;14.510;2023-08-20T00:23:36;24.20;68.80
39777;DHT22;25453;48.162;14.510;2023-08-20T00:26:04;24.20;68.80
39777;DHT22;25453;48.162;14.510;2023-08-20T00:28:31;24.20;68.80
39777;DHT22;25453;48.162;14.510;2023-08-20T00:31:01;24.20;68.60
39777;DHT22;25453;48.162;14.510;2023-08-20T00:33:29;24.10;68.60
39777;DHT22;25453;48.162;14.510;2023-08-20T00:35:56;24.10;68.80
39777;DHT22;25453;48.162;14.510;2023-08-20T00:38:23;24.10;68.80
39777;DHT22;25453;48.162;14.510;2023-08-20T00:40:50;24.20;68.80
39777;DHT22;25453;48.162;14.510;2023-08-20T00:43:17;24.20;68.70
39777;DHT22;25453;48.162;14.510;2023-08-20T00:45:45;24.10;68.50
39777;DHT22;25453;48.162;14.510;2023-08-20T00:48:12;24.10;68.50
39777;DHT22;25453;48.162;14.510;2023-08-20T00:50:40;24.10;68.70
39777;DHT22;25453;48.162;14.510;2023-08-20T00:53:09;24.20;68.80
39777;DHT22;25453;48.162;14.510;2023-08-20T00:55:37;24.20;68.70
39777;DHT22;25453;48.162;14.510;2023-08-20T00:58:05;24.20;68.50
39777;DHT22;25453;48.162;14.510;2023-08-20T01:00:32;24.20;68.30
39777;DHT22;25453;48.162;14.510;2023-08-20T01:02:59;24.20;68.30
39777;DHT22;25453;48.162;14.510;2023-08-20T01:05:31;24.20;68.30
39777;DHT22;25453;48.162;14.510;2023-08-20T01:08:16;24.10;68.10
39777;DHT22;25453;48.162;14.510;2023-08-20T01:11:25;24.00;68.40
39777;DHT22;25453;48.162;14.510;2023-08-20T01:13:58;24.00;68.50
39777;DHT22;25453;48.162;14.510;2023-08-20T01:16:25;24.00;68.20
39777;DHT22;25453;48.162;14.510;2023-08-20T01:18:53;23.90;68.30
39777;DHT22;25453;48.162;14.510;2023-08-20T01:21:34;23.80;68.40
39777;DHT22;25453;48.162;14.510;2023-08-20T01:29:59;23.60;68.80
39777;DHT22;25453;48.162;14.510;2023-08-20T01:32:27;23.60;69.00
39777;DHT22;25453;48.162;14.510;2023-08-20T01:34:54;23.60;69.00
39777;DHT22;25453;48.162;14.510;2023-08-20T01:37:22;23.50;69.00
39777;DHT22;25453;48.162;14.510;2023-08-20T01:39:51;23.40;69.20
39777;DHT22;25453;48.162;14.510;2023-08-20T01:42:18;23.40;69.50
39777;DHT22;25453;48.162;14.510;2023-08-20T01:44:45;23.40;69.60
39777;DHT22;25453;48.162;14.510;2023-08-20T01:47:13;23.40;69.70
39777;DHT22;25453;48.162;14.510;2023-08-20T01:49:40;23.40;69.80
39777;DHT22;25453;48.162;14.510;2023-08-20T01:52:07;23.40;69.90
39777;DHT22;25453;48.162;14.510;2023-08-20T01:54:34;23.40;69.90
39777;DHT22;25453;48.162;14.510;2023-08-20T01:57:02;23.40;69.80
39777;DHT22;25453;48.162;14.510;2023-08-20T01:59:31;23.40;69.90
39777;DHT22;25453;48.162;14.510;2023-08-20T02:01:58;23.40;69.80
39777;DHT22;25453;48.162;14.510;2023-08-20T02:04:25;23.40;69.80
39777;DHT22;25453;48.162;14.510;2023-08-20T02:06:52;23.40;69.90
39777;DHT22;25453;48.162;14.510;2023-08-20T02:09:19;23.40;69.80
39777;DHT22;25453;48.162;14.510;2023-08-20T02:11:47;23.30;69.70
39777;DHT22;25453;48.162;14.510;2023-08-20T02:14:15;23.30;69.80
39777;DHT22;25453;48.162;14.510;2023-08-20T02:16:42;23.30;69.80
39777;DHT22;25453;48.162;14.510;2023-08-20T02:19:09;23.30;69.70
39777;DHT22;25453;48.162;14.510;2023-08-20T02:21:37;23.20;69.70
39777;DHT22;25453;48.162;14.510;2023-08-20T02:24:05;23.20;69.70
39777;DHT22;25453;48.162;14.510;2023-08-20T02:26:32;23.10;69.70
39777;DHT22;25453;48.162;14.510;2023-08-20T02:28:59;23.10;69.90
39777;DHT22;25453;48.162;14.510;2023-08-20T02:31:26;23.00;70.00
39777;DHT22;25453;48.162;14.510;2023-08-20T02:33:56;23.00;70.30
39777;DHT22;25453;48.162;14.510;2023-08-20T02:36:23;23.10;70.50
39777;DHT22;25453;48.162;14.510;2023-08-20T02:38:51;23.20;70.60
39777;DHT22;25453;48.162;14.510;2023-08-20T02:41:18;23.20;70.10
39777;DHT22;25453;48.162;14.510;2023-08-20T02:43:45;23.20;69.80
39777;DHT22;25453;48.162;14.510;2023-08-20T02:46:12;23.20;69.90
39777;DHT22;25453;48.162;14.510;2023-08-20T02:48:39;23.10;69.80
39777;DHT22;25453;48.162;14.510;2023-08-20T02:51:06;23.00;69.90
39777;DHT22;25453;48.162;14.510;2023-08-20T02:53:34;22.90;70.10
39777;DHT22;25453;48.162;14.510;2023-08-20T02:56:01;22.90;70.50
39777;DHT22;25453;48.162;14.510;2023-08-20T02:58:28;23.00;70.70
39777;DHT22;25453;48.162;14.510;2023-08-20T03:00:55;23.10;70.60
39777;DHT22;25453;48.162;14.510;2023-08-20T03:03:22;23.10;70.30
39777;DHT22;25453;48.162;14.510;2023-08-20T03:05:49;23.10;70.20
39777;DHT22;25453;48.162;14.510;2023-08-20T03:08:17;23.10;70.20
39777;DHT22;25453;48.162;14.510;2023-08-20T03:10:44;23.00;70.10
39777;DHT22;25453;48.162;14.510;2023-08-20T03:13:11;23.00;70.00
39777;DHT22;25453;48.162;14.510;2023-08-20T03:15:38;22.90;70.00
39777;DHT22;25453;48.162;14.510;2023-08-20T03:18:06;22.80;70.10
39777;DHT22;25453;48.162;14.510;2023-08-20T03:20:33;22.80;70.30
39777;DHT22;25453;48.162;14.510;2023-08-20T03:23:01;22.80;70.40
39777;DHT22;25453;48.162;14.510;2023-08-20T03:25:28;22.80;70.30
39777;DHT22;25453;48.162;14.510;2023-08-20T03:27:55;22.80;70.30
39777;DHT22;25453;48.162;14.510;2023-08-20T03:30:22;22.70;70.40
39777;DHT22;25453;48.162;14.510;2023-08-20T03:32:50;22.80;70.50
39777;DHT22;25453;48.162;14.510;2023-08-20T03:35:17;22.70;70.50
39777;DHT22;25453;48.162;14.510;2023-08-20T03:37:44;22.70;70.50
39777;DHT22;25453;48.162;14.510;2023-08-20T03:40:11;22.70;70.50
39777;DHT22;25453;48.162;14.510;2023-08-20T03:42:38;22.80;70.70
39777;DHT22;25453;48.162;14.510;2023-08-20T03:45:06;22.80;70.90
39777;DHT22;25453;48.162;14.510;2023-08-20T03:47:33;22.90;70.80
39777;DHT22;25453;48.162;14.510;2023-08-20T03:50:01;23.00;70.50
39777;DHT22;25453;48.162;14.510;2023-08-20T03:52:28;23.00;70.00
39777;DHT22;25453;48.162;14.510;2023-08-20T03:54:55;22.90;69.90
39777;DHT22;25453;48.162;14.510;2023-08-20T03:57:22;23.00;70.00
39777;DHT22;25453;48.162;14.510;2023-08-20T03:59:50;22.90;69.60
39777;DHT22;25453;48.162;14.510;2023-08-20T04:02:17;22.90;69.60
39777;DHT22;25453;48.162;14.510;2023-08-20T04:04:44;22.80;69.70
39777;DHT22;25453;48.162;14.510;2023-08-20T04:07:11;22.80;69.80
39777;DHT22;25453;48.162;14.510;2023-08-20T04:09:38;22.70;69.90
39777;DHT22;25453;48.162;14.510;2023-08-20T04:12:06;22.70;69.90
39777;DHT22;25453;48.162;14.510;2023-08-20T04:14:33;22.60;70.00
39777;DHT22;25453;48.162;14.510;2023-08-20T04:17:01;22.60;70.20
39777;DHT22;25453;48.162;14.510;2023-08-20T04:19:28;22.60;70.20
39777;DHT22;25453;48.162;14.510;2023-08-20T04:21:55;22.70;70.30
39777;DHT22;25453;48.162;14.510;2023-08-20T04:24:22;22.70;70.20
39777;DHT22;25453;48.162;14.510;2023-08-20T04:26:49;22.70;70.20
39777;DHT22;25453;48.162;14.510;2023-08-20T04:29:16;22.70;70.10
39777;DHT22;25453;48.162;14.510;2023-08-20T04:31:45;22.60;70.00
39777;DHT22;25453;48.162;14.510;2023-08-20T04:34:12;22.60;70.20
39777;DHT22;25453;48.162;14.510;2023-08-20T04:36:39;22.70;70.20
39777;DHT22;25453;48.162;14.510;2023-08-20T04:39:06;22.70;70.10
39777;DHT22;25453;48.162;14.510;2023-08-20T04:41:33;22.70;70.30
39777;DHT22;25453;48.162;14.510;2023-08-20T04:44:00;22.70;70.50
39777;DHT22;25453;48.162;14.510;2023-08-20T04:46:27;22.80;70.50
39777;DHT22;25453;48.162;14.510;2023-08-20T04:48:55;22.90;70.50
39777;DHT22;25453;48.162;14.510;2023-08-20T04:51:22;22.90;70.20
39777;DHT22;25453;48.162;14.510;2023-08-20T04:53:49;22.90;70.00
39777;DHT22;25453;48.162;14.510;2023-08-20T04:56:17;22.90;70.00
39777;DHT22;25453;48.162;14.510;2023-08-20T04:58:44;22.90;70.10
39777;DHT22;25453;48.162;14.510;2023-08-20T05:01:11;22.80;70.20
39777;DHT22;25453;48.162;14.510;2023-08-20T05:03:38;22.80;70.40
39777;DHT22;25453;48.162;14.510;2023-08-20T05:06:05;22.80;70.50
39777;DHT22;25453;48.162;14.510;2023-08-20T05:08:33;22.90;70.50
39777;DHT22;25453;48.162;14.510;2023-08-20T05:11:00;22.90;70.50
39777;DHT22;25453;48.162;14.510;2023-08-20T05:13:28;22.90;70.50
39777;DHT22;25453;48.162;14.510;2023-08-20T05:15:56;22.90;70.50
39777;DHT22;25453;48.162;14.510;2023-08-20T05:18:24;22.90;70.60
39777;DHT22;25453;48.162;14.510;2023-08-20T05:20:51;22.90;70.70
39777;DHT22;25453;48.162;14.510;2023-08-20T05:23:18;22.90;70.80
39777;DHT22;25453;48.162;14.510;2023-08-20T05:25:45;23.00;70.80
39777;DHT22;25453;48.162;14.510;2023-08-20T05:28:12;23.00;70.80
39777;DHT22;25453;48.162;14.510;2023-08-20T05:30:39;23.00;70.80
39777;DHT22;25453;48.162;14.510;2023-08-20T05:33:07;23.10;70.80
39777;DHT22;25453;48.162;14.510;2023-08-20T05:35:34;23.10;70.70
39777;DHT22;25453;48.162;14.510;2023-08-20T05:38:02;23.10;70.70
39777;DHT22;25453;48.162;14.510;2023-08-20T05:40:30;23.20;70.70
39777;DHT22;25453;48.162;14.510;2023-08-20T05:42:57;23.20;70.80
39777;DHT22;25453;48.162;14.510;2023-08-20T05:45:24;23.30;70.80
39777;DHT22;25453;48.162;14.510;2023-08-20T05:47:52;23.30;70.80
39777;DHT22;25453;48.162;14.510;2023-08-20T05:50:19;23.40;70.70
39777;DHT22;25453;48.162;14.510;2023-08-20T05:52:46;23.40;70.40
39777;DHT22;25453;48.162;14.510;2023-08-20T05:55:14;23.40;70.50
39777;DHT22;25453;48.162;14.510;2023-08-20T05:57:46;23.50;70.40
39777;DHT22;25453;48.162;14.510;2023-08-20T06:00:13;23.50;70.30
39777;DHT22;25453;48.162;14.510;2023-08-20T06:02:40;23.50;70.20
39777;DHT22;25453;48.162;14.510;2023-08-20T06:05:08;23.60;70.20
39777;DHT22;25453;48.162;14.510;2023-08-20T06:07:35;23.60;70.20
39777;DHT22;25453;48.162;14.510;2023-08-20T06:10:03;23.60;70.30
39777;DHT22;25453;48.162;14.510;2023-08-20T06:12:30;23.70;70.20
39777;DHT22;25453;48.162;14.510;2023-08-20T06:14:57;23.70;70.20
39777;DHT22;25453;48.162;14.510;2023-08-20T06:17:24;23.70;70.10
39777;DHT22;25453;48.162;14.510;2023-08-20T06:19:52;23.80;70.20
39777;DHT22;25453;48.162;14.510;2023-08-20T06:22:19;23.90;70.20
39777;DHT22;25453;48.162;14.510;2023-08-20T06:24:46;23.90;69.90
39777;DHT22;25453;48.162;14.510;2023-08-20T06:27:14;23.90;69.80
39777;DHT22;25453;48.162;14.510;2023-08-20T06:29:41;24.00;69.70
39777;DHT22;25453;48.162;14.510;2023-08-20T06:32:08;24.10;69.70
39777;DHT22;25453;48.162;14.510;2023-08-20T06:34:35;24.10;69.50
39777;DHT22;25453;48.162;14.510;2023-08-20T06:37:03;24.10;69.30
39777;DHT22;25453;48.162;14.510;2023-08-20T06:39:30;24.10;69.30
39777;DHT22;25453;48.162;14.510;2023-08-20T06:41:57;24.10;69.40
39777;DHT22;25453;48.162;14.510;2023-08-20T06:44:25;24.10;69.40
39777;DHT22;25453;48.162;14.510;2023-08-20T06:46:52;24.10;69.50
39777;DHT22;25453;48.162;14.510;2023-08-20T06:49:19;24.20;69.50
39777;DHT22;25453;48.162;14.510;2023-08-20T06:51:46;24.20;69.60
39777;DHT22;25453;48.162;14.510;2023-08-20T06:54:15;24.30;69.50
39777;DHT22;25453;48.162;14.510;2023-08-20T06:56:42;24.30;69.50
39777;DHT22;25453;48.162;14.510;2023-08-20T06:59:10;24.40;69.50
39777;DHT22;25453;48.162;14.510;2023-08-20T07:01:37;24.40;69.50
39777;DHT22;25453;48.162;14.510;2023-08-20T07:04:05;24.50;69.40
39777;DHT22;25453;48.162;14.510;2023-08-20T07:06:32;24.50;69.40
39777;DHT22;25453;48.162;14.510;2023-08-20T07:08:59;24.60;69.50
39777;DHT22;25453;48.162;14.510;2023-08-20T07:11:26;24.60;69.50
39777;DHT22;25453;48.162;14.510;2023-08-20T07:13:54;24.70;69.50
39777;DHT22;25453;48.162;14.510;2023-08-20T07:16:21;24.80;69.40
39777;DHT22;25453;48.162;14.510;2023-08-20T07:18:48;24.80;69.40
39777;DHT22;25453;48.162;14.510;2023-08-20T07:21:15;24.80;69.30
39777;DHT22;25453;48.162;14.510;2023-08-20T07:23:42;24.90;69.20
39777;DHT22;25453;48.162;14.510;2023-08-20T07:26:10;24.90;69.10
39777;DHT22;25453;48.162;14.510;2023-08-20T07:28:39;24.90;69.00
39777;DHT22;25453;48.162;14.510;2023-08-20T07:31:28;25.00;69.00
39777;DHT22;25453;48.162;14.510;2023-08-20T07:33:56;25.00;68.90
39777;DHT22;25453;48.162;14.510;2023-08-20T07:36:29;25.00;68.90
39777;DHT22;25453;48.162;14.510;2023-08-20T07:38:56;25.00;68.90
39777;DHT22;25453;48.162;14.510;2023-08-20T07:41:24;25.10;68.90
39777;DHT22;25453;48.162;14.510;2023-08-20T07:43:51;25.10;68.90
39777;DHT22;25453;48.162;14.510;2023-08-20T07:46:18;25.10;68.90
39777;DHT22;25453;48.162;14.510;2023-08-20T07:48:46;25.20;69.00
39777;DHT22;25453;48.162;14.510;2023-08-20T07:51:13;25.20;69.10
39777;DHT22;25453;48.162;14.510;2023-08-20T07:53:40;25.20;69.20
39777;DHT22;25453;48.162;14.510;2023-08-20T07:56:08;25.30;69.10
39777;DHT22;25453;48.162;14.510;2023-08-20T07:58:38;25.30;69.00
39777;DHT22;25453;48.162;14.510;2023-08-20T08:01:05;25.40;68.80
39777;DHT22;25453;48.162;14.510;2023-08-20T08:03:32;25.40;68.80
39777;DHT22;25453;48.162;14.510;2023-08-20T08:05:59;25.40;68.80
39777;DHT22;25453;48.162;14.510;2023-08-20T08:08:26;25.50;68.80
39777;DHT22;25453;48.162;14.510;2023-08-20T08:10:53;25.50;68.70
39777;DHT22;25453;48.162;14.510;2023-08-20T08:13:22;25.60;68.60
39777;DHT22;25453;48.162;14.510;2023-08-20T08:15:50;25.70;68.40
39777;DHT22;25453;48.162;14.510;2023-08-20T08:18:19;25.70;68.30
39777;DHT22;25453;48.162;14.510;2023-08-20T08:20:47;25.80;68.50
39777;DHT22;25453;48.162;14.510;2023-08-20T08:23:15;25.90;68.60
39777;DHT22;25453;48.162;14.510;2023-08-20T08:25:42;26.00;68.60
39777;DHT22;25453;48.162;14.510;2023-08-20T08:28:09;26.10;68.10
39777;DHT22;25453;48.162;14.510;2023-08-20T08:30:38;26.20;67.90
39777;DHT22;25453;48.162;14.510;2023-08-20T08:33:07;26.20;67.70
39777;DHT22;25453;48.162;14.510;2023-08-20T08:35:34;26.30;67.60
39777;DHT22;25453;48.162;14.510;2023-08-20T08:38:02;26.30;67.30
39777;DHT22;25453;48.162;14.510;2023-08-20T08:40:30;26.30;67.20
39777;DHT22;25453;48.162;14.510;2023-08-20T08:42:57;26.40;67.20
39777;DHT22;25453;48.162;14.510;2023-08-20T08:45:26;26.40;67.20
39777;DHT22;25453;48.162;14.510;2023-08-20T08:47:55;26.60;67.30
39777;DHT22;25453;48.162;14.510;2023-08-20T08:50:22;26.70;67.00
39777;DHT22;25453;48.162;14.510;2023-08-20T08:52:51;26.70;66.80
39777;DHT22;25453;48.162;14.510;2023-08-20T08:55:21;26.80;67.00
39777;DHT22;25453;48.162;14.510;2023-08-20T08:57:49;26.90;66.90
39777;DHT22;25453;48.162;14.510;2023-08-20T09:00:16;27.00;66.70
39777;DHT22;25453;48.162;14.510;2023-08-20T09:02:43;27.10;66.50
39777;DHT22;25453;48.162;14.510;2023-08-20T09:05:13;27.20;66.30
39777;DHT22;25453;48.162;14.510;2023-08-20T09:07:43;27.30;66.10
39777;DHT22;25453;48.162;14.510;2023-08-20T09:10:11;27.30;65.70
39777;DHT22;25453;48.162;14.510;2023-08-20T09:12:38;27.40;65.40
39777;DHT22;25453;48.162;14.510;2023-08-20T09:15:10;27.40;65.30
39777;DHT22;25453;48.162;14.510;2023-08-20T09:17:39;27.50;65.10
39777;DHT22;25453;48.162;14.510;2023-08-20T09:20:08;27.50;65.00
39777;DHT22;25453;48.162;14.510;2023-08-20T09:22:36;27.60;64.80
39777;DHT22;25453;48.162;14.510;2023-08-20T09:25:04;27.70;64.30
39777;DHT22;25453;48.162;14.510;2023-08-20T09:27:39;27.80;63.80
39777;DHT22;25453;48.162;14.510;2023-08-20T09:30:07;27.90;63.50
39777;DHT22;25453;48.162;14.510;2023-08-20T09:32:35;28.00;63.10
39777;DHT22;25453;48.162;14.510;2023-08-20T09:35:02;28.10;62.30
39777;DHT22;25453;48.162;14.510;2023-08-20T09:37:30;28.20;62.10
39777;DHT22;25453;48.162;14.510;2023-08-20T09:40:00;28.30;61.70
39777;DHT22;25453;48.162;14.510;2023-08-20T09:42:27;28.50;61.50
39777;DHT22;25453;48.162;14.510;2023-08-20T09:45:02;28.70;61.10
39777;DHT22;25453;48.162;14.510;2023-08-20T09:47:33;29.00;60.80
39777;DHT22;25453;48.162;14.510;2023-08-20T09:50:02;29.20;60.30
39777;DHT22;25453;48.162;14.510;2023-08-20T09:52:39;29.40;59.60
39777;DHT22;25453;48.162;14.510;2023-08-20T09:55:09;29.70;59.20
39777;DHT22;25453;48.162;14.510;2023-08-20T09:57:38;29.90;58.40
39777;DHT22;25453;48.162;14.510;2023-08-20T10:00:10;30.00;57.50
39777;DHT22;25453;48.162;14.510;2023-08-20T10:02:42;30.00;56.90
39777;DHT22;25453;48.162;14.510;2023-08-20T10:05:11;30.00;56.90
39777;DHT22;25453;48.162;14.510;2023-08-20T10:07:39;30.00;57.00
39777;DHT22;25453;48.162;14.510;2023-08-20T10:10:08;30.00;56.90
39777;DHT22;25453;48.162;14.510;2023-08-20T10:12:37;30.10;56.90
39777;DHT22;25453;48.162;14.510;2023-08-20T10:15:09;30.10;56.70
39777;DHT22;25453;48.162;14.510;2023-08-20T10:17:38;30.10;56.50
39777;DHT22;25453;48.162;14.510;2023-08-20T10:20:07;30.10;56.40
39777;DHT22;25453;48.162;14.510;2023-08-20T10:22:41;30.10;56.40
39777;DHT22;25453;48.162;14.510;2023-08-20T10:25:10;30.10;56.30
39777;DHT22;25453;48.162;14.510;2023-08-20T10:27:40;30.20;56.00
39777;DHT22;25453;48.162;14.510;2023-08-20T10:30:11;30.20;56.30
39777;DHT22;25453;48.162;14.510;2023-08-20T10:32:45;30.40;56.60
39777;DHT22;25453;48.162;14.510;2023-08-20T10:38:11;31.00;55.90
39777;DHT22;25453;48.162;14.510;2023-08-20T10:43:32;31.30;54.90
39777;DHT22;25453;48.162;14.510;2023-08-20T10:48:37;31.40;53.40
39777;DHT22;25453;48.162;14.510;2023-08-20T10:51:16;31.40;52.70
39777;DHT22;25453;48.162;14.510;2023-08-20T10:56:46;31.20;52.20
39777;DHT22;25453;48.162;14.510;2023-08-20T10:59:26;31.10;52.10
39777;DHT22;25453;48.162;14.510;2023-08-20T11:01:58;30.90;51.90
39777;DHT22;25453;48.162;14.510;2023-08-20T11:04:30;30.80;51.80
39777;DHT22;25453;48.162;14.510;2023-08-20T11:07:01;30.70;51.90
39777;DHT22;25453;48.162;14.510;2023-08-20T11:09:29;30.50;52.30
39777;DHT22;25453;48.162;14.510;2023-08-20T11:11:57;30.40;52.60
39777;DHT22;25453;48.162;14.510;2023-08-20T11:14:25;30.30;53.00
39777;DHT22;25453;48.162;14.510;2023-08-20T11:16:52;30.20;53.00
39777;DHT22;25453;48.162;14.510;2023-08-20T11:19:21;30.10;53.50
39777;DHT22;25453;48.162;14.510;2023-08-20T11:21:49;30.20;54.20
39777;DHT22;25453;48.162;14.510;2023-08-20T11:24:17;30.40;54.50
39777;DHT22;25453;48.162;14.510;2023-08-20T11:26:47;30.60;54.00
39777;DHT22;25453;48.162;14.510;2023-08-20T11:29:16;30.70;53.60
39777;DHT22;25453;48.162;14.510;2023-08-20T11:31:48;30.70;53.30
39777;DHT22;25453;48.162;14.510;2023-08-20T11:34:16;30.60;53.30
39777;DHT22;25453;48.162;14.510;2023-08-20T11:36:45;30.50;53.20
39777;DHT22;25453;48.162;14.510;2023-08-20T11:39:12;30.50;53.30
39777;DHT22;25453;48.162;14.510;2023-08-20T11:41:40;30.40;53.50
39777;DHT22;25453;48.162;14.510;2023-08-20T11:44:09;30.40;53.90
39777;DHT22;25453;48.162;14.510;2023-08-20T11:46:43;30.50;53.80
39777;DHT22;25453;48.162;14.510;2023-08-20T11:49:12;30.50;53.60
39777;DHT22;25453;48.162;14.510;2023-08-20T11:51:44;30.50;53.50
39777;DHT22;25453;48.162;14.510;2023-08-20T11:54:16;30.60;53.30
39777;DHT22;25453;48.162;14.510;2023-08-20T11:56:48;30.70;53.10
39777;DHT22;25453;48.162;14.510;2023-08-20T11:59:17;30.90;52.60
39777;DHT22;25453;48.162;14.510;2023-08-20T12:01:52;31.00;52.10
39777;DHT22;25453;48.162;14.510;2023-08-20T12:04:24;31.10;52.10
39777;DHT22;25453;48.162;14.510;2023-08-20T12:07:09;31.30;51.60
39777;DHT22;25453;48.162;14.510;2023-08-20T12:09:36;31.40;51.10
39777;DHT22;25453;48.162;14.510;2023-08-20T12:12:06;31.50;51.00
39777;DHT22;25453;48.162;14.510;2023-08-20T12:14:34;31.60;50.80
39777;DHT22;25453;48.162;14.510;2023-08-20T12:17:01;31.80;50.70
39777;DHT22;25453;48.162;14.510;2023-08-20T12:19:30;32.10;50.40
39777;DHT22;25453;48.162;14.510;2023-08-20T12:21:57;32.40;50.10
39777;DHT22;25453;48.162;14.510;2023-08-20T12:24:24;32.60;49.50
39777;DHT22;25453;48.162;14.510;2023-08-20T12:26:53;32.80;49.00
39777;DHT22;25453;48.162;14.510;2023-08-20T12:29:20;32.90;48.50
39777;DHT22;25453;48.162;14.510;2023-08-20T12:31:48;32.90;48.10
39777;DHT22;25453;48.162;14.510;2023-08-20T12:34:15;32.90;48.00
39777;DHT22;25453;48.162;14.510;2023-08-20T12:36:42;32.90;47.80
39777;DHT22;25453;48.162;14.510;2023-08-20T12:39:09;32.80;47.70
39777;DHT22;25453;48.162;14.510;2023-08-20T12:41:36;32.70;47.60
39777;DHT22;25453;48.162;14.510;2023-08-20T12:44:03;32.70;47.50
39777;DHT22;25453;48.162;14.510;2023-08-20T12:46:31;32.70;47.40
39777;DHT22;25453;48.162;14.510;2023-08-20T12:48:58;32.60;47.40
39777;DHT22;25453;48.162;14.510;2023-08-20T12:51:25;32.70;47.40
39777;DHT22;25453;48.162;14.510;2023-08-20T12:53:53;32.90;47.40
39777;DHT22;25453;48.162;14.510;2023-08-20T12:56:20;33.00;47.00
39777;DHT22;25453;48.162;14.510;2023-08-20T12:58:47;33.30;46.60
39777;DHT22;25453;48.162;14.510;2023-08-20T13:01:14;33.40;46.20
39777;DHT22;25453;48.162;14.510;2023-08-20T13:03:41;33.60;45.80
39777;DHT22;25453;48.162;14.510;2023-08-20T13:06:09;33.60;45.20
39777;DHT22;25453;48.162;14.510;2023-08-20T13:08:36;33.50;45.10
39777;DHT22;25453;48.162;14.510;2023-08-20T13:11:05;33.40;45.10
39777;DHT22;25453;48.162;14.510;2023-08-20T13:13:33;33.30;45.10
39777;DHT22;25453;48.162;14.510;2023-08-20T13:16:01;33.10;45.10
39777;DHT22;25453;48.162;14.510;2023-08-20T13:18:29;32.90;45.20
39777;DHT22;25453;48.162;14.510;2023-08-20T13:20:57;32.70;45.40
39777;DHT22;25453;48.162;14.510;2023-08-20T13:23:24;32.50;45.70
39777;DHT22;25453;48.162;14.510;2023-08-20T13:25:51;32.20;45.90
39777;DHT22;25453;48.162;14.510;2023-08-20T13:28:18;32.00;46.30
39777;DHT22;25453;48.162;14.510;2023-08-20T13:30:46;31.80;46.70
39777;DHT22;25453;48.162;14.510;2023-08-20T13:33:13;31.70;47.10
39777;DHT22;25453;48.162;14.510;2023-08-20T13:35:42;31.60;47.40
39777;DHT22;25453;48.162;14.510;2023-08-20T13:38:09;31.50;47.60
39777;DHT22;25453;48.162;14.510;2023-08-20T13:40:36;31.50;47.80
39777;DHT22;25453;48.162;14.510;2023-08-20T13:43:03;31.50;47.50
39777;DHT22;25453;48.162;14.510;2023-08-20T13:45:31;31.40;47.80
39777;DHT22;25453;48.162;14.510;2023-08-20T13:47:59;31.40;48.10
39777;DHT22;25453;48.162;14.510;2023-08-20T13:50:26;31.30;48.20
39777;DHT22;25453;48.162;14.510;2023-08-20T13:52:53;31.20;48.20
39777;DHT22;25453;48.162;14.510;2023-08-20T13:55:20;31.10;48.20
39777;DHT22;25453;48.162;14.510;2023-08-20T13:57:48;31.00;48.20
39777;DHT22;25453;48.162;14.510;2023-08-20T14:00:15;30.80;48.60
39777;DHT22;25453;48.162;14.510;2023-08-20T14:02:43;30.60;48.80
39777;DHT22;25453;48.162;14.510;2023-08-20T14:05:10;30.50;49.10
39777;DHT22;25453;48.162;14.510;2023-08-20T14:07:38;30.30;49.40
39777;DHT22;25453;48.162;14.510;2023-08-20T14:10:06;30.10;49.70
39777;DHT22;25453;48.162;14.510;2023-08-20T14:12:33;30.10;50.20
39777;DHT22;25453;48.162;14.510;2023-08-20T14:15:05;30.10;50.40
39777;DHT22;25453;48.162;14.510;2023-08-20T14:17:32;30.20;50.40
39777;DHT22;25453;48.162;14.510;2023-08-20T14:20:00;30.30;50.10
39777;DHT22;25453;48.162;14.510;2023-08-20T14:22:27;30.40;50.20
39777;DHT22;25453;48.162;14.510;2023-08-20T14:24:54;30.50;50.00
39777;DHT22;25453;48.162;14.510;2023-08-20T14:27:21;30.60;49.90
39777;DHT22;25453;48.162;14.510;2023-08-20T14:29:49;30.70;49.80
39777;DHT22;25453;48.162;14.510;2023-08-20T14:32:16;30.80;49.90
39777;DHT22;25453;48.162;14.510;2023-08-20T14:34:43;31.00;50.00
39777;DHT22;25453;48.162;14.510;2023-08-20T14:37:11;31.20;49.60
39777;DHT22;25453;48.162;14.510;2023-08-20T14:39:40;31.50;49.10
39777;DHT22;25453;48.162;14.510;2023-08-20T14:42:07;31.70;48.70
39777;DHT22;25453;48.162;14.510;2023-08-20T14:44:35;31.70;48.00
39777;DHT22;25453;48.162;14.510;2023-08-20T14:47:02;31.70;47.80
39777;DHT22;25453;48.162;14.510;2023-08-20T14:49:31;31.70;48.00
39777;DHT22;25453;48.162;14.510;2023-08-20T14:51:58;31.80;47.70
39777;DHT22;25453;48.162;14.510;2023-08-20T14:54:45;32.00;47.20
39777;DHT22;25453;48.162;14.510;2023-08-20T14:57:13;32.10;46.50
39777;DHT22;25453;48.162;14.510;2023-08-20T14:59:44;32.20;46.10
39777;DHT22;25453;48.162;14.510;2023-08-20T15:02:11;32.20;46.00
39777;DHT22;25453;48.162;14.510;2023-08-20T15:04:38;32.10;46.40
39777;DHT22;25453;48.162;14.510;2023-08-20T15:07:06;32.10;46.60
39777;DHT22;25453;48.162;14.510;2023-08-20T15:09:33;32.00;46.40
39777;DHT22;25453;48.162;14.510;2023-08-20T15:12:00;32.00;46.30
39777;DHT22;25453;48.162;14.510;2023-08-20T15:14:27;31.90;46.30
39777;DHT22;25453;48.162;14.510;2023-08-20T15:16:54;31.80;46.30
39777;DHT22;25453;48.162;14.510;2023-08-20T15:19:21;31.70;46.30
39777;DHT22;25453;48.162;14.510;2023-08-20T15:21:48;31.60;46.50
39777;DHT22;25453;48.162;14.510;2023-08-20T15:24:15;31.60;46.60
39777;DHT22;25453;48.162;14.510;2023-08-20T15:26:43;31.50;46.70
39777;DHT22;25453;48.162;14.510;2023-08-20T15:29:10;31.40;46.80
39777;DHT22;25453;48.162;14.510;2023-08-20T15:31:37;31.30;47.10
39777;DHT22;25453;48.162;14.510;2023-08-20T15:34:04;31.10;47.30
39777;DHT22;25453;48.162;14.510;2023-08-20T15:36:32;31.00;47.70
39777;DHT22;25453;48.162;14.510;2023-08-20T15:38:59;30.80;48.20